sensor_id;sensor_type;location;lat;lon;timestamp;P1;durP1;ratioP1;P2;durP2;ratioP2
41261;SDS011;29629;52.532;13.352;2023-06-10T00:00:28;109.40;;;79.70;;
41261;SDS011;29629;52.532;13.352;2023-06-10T00:02:56;110.25;;;80.30;;
41261;SDS011;29629;52.532;13.352;2023-06-10T00:05:24;103.78;;;78.22;;
41261;SDS011;29629;52.532;13.352;2023-06-10T00:07:56;112.20;;;81.15;;
41261;SDS011;29629;52.532;13.352;2023-06-10T00:10:23;111.07;;;81.18;;
41261;SDS011;29629;52.532;13.352;2023-06-10T00:12:51;118.63;;;82.80;;
41261;SDS011;29629;52.532;13.352;2023-06-10T00:15:18;118.05;;;82.28;;
41261;SDS011;29629;52.532;13.352;2023-06-10T00:17:45;118.78;;;83.03;;
41261;SDS011;29629;52.532;13.352;2023-06-10T00:20:12;109.88;;;79.78;;
41261;SDS011;29629;52.532;13.352;2023-06-10T00:22:39;109.07;;;79.75;;
41261;SDS011;29629;52.532;13.352;2023-06-10T00:25:12;107.30;;;77.43;;
41261;SDS011;29629;52.532;13.352;2023-06-10T00:27:39;116.90;;;81.80;;
41261;SDS011;29629;52.532;13.352;2023-06-10T00:30:06;103.57;;;78.25;;
41261;SDS011;29629;52.532;13.352;2023-06-10T00:32:34;108.35;;;79.97;;
41261;SDS011;29629;52.532;13.352;2023-06-10T00:35:01;115.28;;;80.78;;
41261;SDS011;29629;52.532;13.352;2023-06-10T00:37:29;107.90;;;80.38;;
41261;SDS011;29629;52.532;13.352;2023-06-10T00:39:57;110.05;;;79.00;;
41261;SDS011;29629;52.532;13.352;2023-06-10T00:42:25;107.22;;;79.78;;
41261;SDS011;29629;52.532;13.352;2023-06-10T00:44:53;112.55;;;81.15;;
41261;SDS011;29629;52.532;13.352;2023-06-10T00:47:20;112.13;;;79.70;;
41261;SDS011;29629;52.532;13.352;2023-06-10T00:49:48;109.78;;;80.88;;
41261;SDS011;29629;52.532;13.352;2023-06-10T00:52:16;108.93;;;78.97;;
41261;SDS011;29629;52.532;13.352;2023-06-10T00:54:45;105.93;;;78.63;;
41261;SDS011;29629;52.532;13.352;2023-06-10T00:57:12;104.28;;;78.22;;
41261;SDS011;29629;52.532;13.352;2023-06-10T00:59:41;114.13;;;80.63;;
41261;SDS011;29629;52.532;13.352;2023-06-10T01:02:13;108.72;;;79.63;;
41261;SDS011;29629;52.532;13.352;2023-06-10T01:04:40;109.05;;;80.82;;
41261;SDS011;29629;52.532;13.352;2023-06-10T01:07:08;106.05;;;79.03;;
41261;SDS011;29629;52.532;13.352;2023-06-10T01:09:42;127.32;;;84.63;;
41261;SDS011;29629;52.532;13.352;2023-06-10T01:12:21;108.50;;;78.10;;
41261;SDS011;29629;52.532;13.352;2023-06-10T01:14:56;108.93;;;78.97;;
41261;SDS011;29629;52.532;13.352;2023-06-10T01:17:25;114.82;;;79.55;;
41261;SDS011;29629;52.532;13.352;2023-06-10T01:19:53;114.60;;;81.10;;
41261;SDS011;29629;52.532;13.352;2023-06-10T01:22:23;108.22;;;79.43;;
41261;SDS011;29629;52.532;13.352;2023-06-10T01:24:51;114.28;;;80.03;;
41261;SDS011;29629;52.532;13.352;2023-06-10T01:27:19;105.95;;;78.38;;
41261;SDS011;29629;52.532;13.352;2023-06-10T01:29:50;108.45;;;79.28;;
41261;SDS011;29629;52.532;13.352;2023-06-10T01:32:22;111.90;;;80.22;;
41261;SDS011;29629;52.532;13.352;2023-06-10T01:34:53;109.43;;;79.38;;
41261;SDS011;29629;52.532;13.352;2023-06-10T01:37:23;109.93;;;79.85;;
41261;SDS011;29629;52.532;13.352;2023-06-10T01:39:52;119.22;;;80.95;;
41261;SDS011;29629;52.532;13.352;2023-06-10T01:42:23;105.20;;;78.43;;
41261;SDS011;29629;52.532;13.352;2023-06-10T01:44:50;108.05;;;78.57;;
41261;SDS011;29629;52.532;13.352;2023-06-10T01:47:17;110.97;;;79.43;;
41261;SDS011;29629;52.532;13.352;2023-06-10T01:49:44;107.15;;;78.53;;
41261;SDS011;29629;52.532;13.352;2023-06-10T01:52:11;110.18;;;78.18;;
41261;SDS011;29629;52.532;13.352;2023-06-10T01:54:40;104.28;;;77.47;;
41261;SDS011;29629;52.532;13.352;2023-06-10T01:57:07;107.25;;;77.93;;
41261;SDS011;29629;52.532;13.352;2023-06-10T01:59:34;111.63;;;79.03;;
41261;SDS011;29629;52.532;13.352;2023-06-10T02:02:03;112.03;;;79.85;;
41261;SDS011;29629;52.532;13.352;2023-06-10T02:04:31;110.22;;;79.20;;
41261;SDS011;29629;52.532;13.352;2023-06-10T02:06:57;112.13;;;77.47;;
41261;SDS011;29629;52.532;13.352;2023-06-10T02:09:29;110.55;;;77.40;;
41261;SDS011;29629;52.532;13.352;2023-06-10T02:11:57;107.55;;;77.32;;
41261;SDS011;29629;52.532;13.352;2023-06-10T02:14:24;112.03;;;79.72;;
41261;SDS011;29629;52.532;13.352;2023-06-10T02:16:51;104.95;;;75.22;;
41261;SDS011;29629;52.532;13.352;2023-06-10T02:19:21;108.78;;;78.20;;
41261;SDS011;29629;52.532;13.352;2023-06-10T02:21:48;116.10;;;80.05;;
41261;SDS011;29629;52.532;13.352;2023-06-10T02:24:15;109.93;;;79.03;;
41261;SDS011;29629;52.532;13.352;2023-06-10T02:26:42;109.35;;;78.53;;
41261;SDS011;29629;52.532;13.352;2023-06-10T02:29:11;110.55;;;79.07;;
41261;SDS011;29629;52.532;13.352;2023-06-10T02:31:38;100.22;;;75.88;;
41261;SDS011;29629;52.532;13.352;2023-06-10T02:34:06;109.43;;;79.35;;
41261;SDS011;29629;52.532;13.352;2023-06-10T02:36:33;110.82;;;79.65;;
41261;SDS011;29629;52.532;13.352;2023-06-10T02:39:01;138.15;;;85.43;;
41261;SDS011;29629;52.532;13.352;2023-06-10T02:41:29;107.28;;;78.78;;
41261;SDS011;29629;52.532;13.352;2023-06-10T02:43:56;120.20;;;81.22;;
41261;SDS011;29629;52.532;13.352;2023-06-10T02:46:24;110.50;;;80.00;;
41261;SDS011;29629;52.532;13.352;2023-06-10T02:48:51;127.75;;;84.85;;
41261;SDS011;29629;52.532;13.352;2023-06-10T02:51:18;109.60;;;79.72;;
41261;SDS011;29629;52.532;13.352;2023-06-10T02:53:45;114.05;;;79.72;;
41261;SDS011;29629;52.532;13.352;2023-06-10T02:56:13;110.35;;;79.82;;
41261;SDS011;29629;52.532;13.352;2023-06-10T02:58:42;111.53;;;77.80;;
41261;SDS011;29629;52.532;13.352;2023-06-10T03:01:08;110.05;;;78.72;;
41261;SDS011;29629;52.532;13.352;2023-06-10T03:03:37;119.40;;;79.47;;
41261;SDS011;29629;52.532;13.352;2023-06-10T03:06:07;111.00;;;79.50;;
41261;SDS011;29629;52.532;13.352;2023-06-10T03:08:35;115.20;;;79.63;;
41261;SDS011;29629;52.532;13.352;2023-06-10T03:11:02;111.60;;;78.88;;
41261;SDS011;29629;52.532;13.352;2023-06-10T03:13:30;108.60;;;78.20;;
41261;SDS011;29629;52.532;13.352;2023-06-10T03:15:56;114.10;;;78.40;;
41261;SDS011;29629;52.532;13.352;2023-06-10T03:18:25;112.57;;;79.63;;
41261;SDS011;29629;52.532;13.352;2023-06-10T03:20:54;110.10;;;77.68;;
41261;SDS011;29629;52.532;13.352;2023-06-10T03:23:21;111.07;;;79.35;;
41261;SDS011;29629;52.532;13.352;2023-06-10T03:25:49;107.80;;;77.20;;
41261;SDS011;29629;52.532;13.352;2023-06-10T03:28:16;114.18;;;79.25;;
41261;SDS011;29629;52.532;13.352;2023-06-10T03:30:42;115.65;;;78.50;;
41261;SDS011;29629;52.532;13.352;2023-06-10T03:33:09;109.07;;;78.22;;
41261;SDS011;29629;52.532;13.352;2023-06-10T03:35:36;105.38;;;76.50;;
41261;SDS011;29629;52.532;13.352;2023-06-10T03:38:05;109.53;;;77.95;;
41261;SDS011;29629;52.532;13.352;2023-06-10T03:40:32;114.22;;;80.97;;
41261;SDS011;29629;52.532;13.352;2023-06-10T03:42:59;111.70;;;79.65;;
41261;SDS011;29629;52.532;13.352;2023-06-10T03:45:26;113.47;;;79.53;;
41261;SDS011;29629;52.532;13.352;2023-06-10T03:47:54;113.57;;;79.00;;
41261;SDS011;29629;52.532;13.352;2023-06-10T03:50:22;118.90;;;80.10;;
41261;SDS011;29629;52.532;13.352;2023-06-10T03:52:49;107.95;;;78.28;;
41261;SDS011;29629;52.532;13.352;2023-06-10T03:55:18;107.45;;;77.85;;
41261;SDS011;29629;52.532;13.352;2023-06-10T03:57:46;118.80;;;79.75;;
41261;SDS011;29629;52.532;13.352;2023-06-10T04:00:14;109.57;;;79.28;;
41261;SDS011;29629;52.532;13.352;2023-06-10T04:02:42;107.65;;;78.05;;
41261;SDS011;29629;52.532;13.352;2023-06-10T04:05:12;110.60;;;80.47;;
41261;SDS011;29629;52.532;13.352;2023-06-10T04:07:40;109.85;;;78.38;;
41261;SDS011;29629;52.532;13.352;2023-06-10T04:10:07;107.25;;;77.68;;
41261;SDS011;29629;52.532;13.352;2023-06-10T04:12:37;109.57;;;77.88;;
41261;SDS011;29629;52.532;13.352;2023-06-10T04:15:05;111.68;;;79.05;;
41261;SDS011;29629;52.532;13.352;2023-06-10T04:17:32;118.30;;;80.28;;
41261;SDS011;29629;52.532;13.352;2023-06-10T04:19:59;111.03;;;78.32;;
41261;SDS011;29629;52.532;13.352;2023-06-10T04:22:28;109.10;;;78.60;;
41261;SDS011;29629;52.532;13.352;2023-06-10T04:24:55;109.85;;;78.03;;
41261;SDS011;29629;52.532;13.352;2023-06-10T04:27:24;111.78;;;79.05;;
41261;SDS011;29629;52.532;13.352;2023-06-10T04:29:52;106.85;;;73.65;;
41261;SDS011;29629;52.532;13.352;2023-06-10T04:32:19;103.55;;;73.00;;
41261;SDS011;29629;52.532;13.352;2023-06-10T04:34:46;99.90;;;72.55;;
41261;SDS011;29629;52.532;13.352;2023-06-10T04:37:13;102.93;;;73.18;;
41261;SDS011;29629;52.532;13.352;2023-06-10T04:39:40;103.05;;;73.68;;
41261;SDS011;29629;52.532;13.352;2023-06-10T04:42:07;111.50;;;75.15;;
41261;SDS011;29629;52.532;13.352;2023-06-10T04:44:34;102.80;;;73.07;;
41261;SDS011;29629;52.532;13.352;2023-06-10T04:47:03;103.18;;;73.93;;
41261;SDS011;29629;52.532;13.352;2023-06-10T04:49:30;105.32;;;74.28;;
41261;SDS011;29629;52.532;13.352;2023-06-10T04:51:58;107.65;;;74.00;;
41261;SDS011;29629;52.532;13.352;2023-06-10T04:54:25;106.50;;;74.57;;
41261;SDS011;29629;52.532;13.352;2023-06-10T04:56:52;106.93;;;74.35;;
41261;SDS011;29629;52.532;13.352;2023-06-10T04:59:19;96.45;;;71.47;;
41261;SDS011;29629;52.532;13.352;2023-06-10T05:01:46;99.32;;;72.47;;
41261;SDS011;29629;52.532;13.352;2023-06-10T05:04:14;98.25;;;71.38;;
41261;SDS011;29629;52.532;13.352;2023-06-10T05:06:41;103.85;;;73.30;;
41261;SDS011;29629;52.532;13.352;2023-06-10T05:09:09;103.90;;;73.15;;
41261;SDS011;29629;52.532;13.352;2023-06-10T05:11:36;109.88;;;75.45;;
41261;SDS011;29629;52.532;13.352;2023-06-10T05:14:02;101.20;;;73.82;;
41261;SDS011;29629;52.532;13.352;2023-06-10T05:16:30;99.40;;;71.85;;
41261;SDS011;29629;52.532;13.352;2023-06-10T05:18:57;117.40;;;77.78;;
41261;SDS011;29629;52.532;13.352;2023-06-10T05:21:25;95.80;;;71.57;;
41261;SDS011;29629;52.532;13.352;2023-06-10T05:23:52;96.38;;;71.93;;
41261;SDS011;29629;52.532;13.352;2023-06-10T05:26:19;101.15;;;72.97;;
41261;SDS011;29629;52.532;13.352;2023-06-10T05:28:46;106.35;;;75.15;;
41261;SDS011;29629;52.532;13.352;2023-06-10T05:31:14;165.02;;;101.60;;
41261;SDS011;29629;52.532;13.352;2023-06-10T05:33:40;102.47;;;74.85;;
41261;SDS011;29629;52.532;13.352;2023-06-10T05:36:07;105.70;;;74.75;;
41261;SDS011;29629;52.532;13.352;2023-06-10T05:38:36;102.20;;;74.10;;
41261;SDS011;29629;52.532;13.352;2023-06-10T05:41:03;107.18;;;75.57;;
41261;SDS011;29629;52.532;13.352;2023-06-10T05:43:30;106.82;;;74.68;;
41261;SDS011;29629;52.532;13.352;2023-06-10T05:45:57;104.72;;;74.60;;
41261;SDS011;29629;52.532;13.352;2023-06-10T05:48:24;104.65;;;74.38;;
41261;SDS011;29629;52.532;13.352;2023-06-10T05:50:51;103.60;;;74.95;;
41261;SDS011;29629;52.532;13.352;2023-06-10T05:53:18;102.53;;;74.65;;
41261;SDS011;29629;52.532;13.352;2023-06-10T05:55:46;104.30;;;75.30;;
41261;SDS011;29629;52.532;13.352;2023-06-10T05:58:14;103.00;;;75.30;;
41261;SDS011;29629;52.532;13.352;2023-06-10T06:00:41;107.20;;;77.03;;
41261;SDS011;29629;52.532;13.352;2023-06-10T06:03:08;100.53;;;74.60;;
41261;SDS011;29629;52.532;13.352;2023-06-10T06:05:36;104.03;;;76.30;;
41261;SDS011;29629;52.532;13.352;2023-06-10T06:08:03;102.75;;;75.78;;
41261;SDS011;29629;52.532;13.352;2023-06-10T06:10:30;107.50;;;76.90;;
41261;SDS011;29629;52.532;13.352;2023-06-10T06:12:59;95.38;;;73.45;;
41261;SDS011;29629;52.532;13.352;2023-06-10T06:15:27;102.72;;;76.32;;
41261;SDS011;29629;52.532;13.352;2023-06-10T06:17:54;106.85;;;77.97;;
41261;SDS011;29629;52.532;13.352;2023-06-10T06:20:21;108.75;;;77.22;;
41261;SDS011;29629;52.532;13.352;2023-06-10T06:22:48;106.18;;;77.05;;
41261;SDS011;29629;52.532;13.352;2023-06-10T06:25:16;106.85;;;78.10;;
41261;SDS011;29629;52.532;13.352;2023-06-10T06:27:43;102.60;;;77.30;;
41261;SDS011;29629;52.532;13.352;2023-06-10T06:30:12;101.35;;;75.95;;
41261;SDS011;29629;52.532;13.352;2023-06-10T06:32:39;103.88;;;76.30;;
41261;SDS011;29629;52.532;13.352;2023-06-10T06:35:06;98.32;;;75.13;;
41261;SDS011;29629;52.532;13.352;2023-06-10T06:37:34;104.22;;;77.88;;
41261;SDS011;29629;52.532;13.352;2023-06-10T06:40:01;108.43;;;78.28;;
41261;SDS011;29629;52.532;13.352;2023-06-10T06:42:29;102.57;;;77.38;;
41261;SDS011;29629;52.532;13.352;2023-06-10T06:44:56;104.03;;;77.88;;
41261;SDS011;29629;52.532;13.352;2023-06-10T06:47:24;105.95;;;78.50;;
41261;SDS011;29629;52.532;13.352;2023-06-10T06:49:51;110.60;;;78.30;;
41261;SDS011;29629;52.532;13.352;2023-06-10T06:52:18;101.72;;;78.10;;
41261;SDS011;29629;52.532;13.352;2023-06-10T06:54:47;105.93;;;77.85;;
41261;SDS011;29629;52.532;13.352;2023-06-10T06:57:14;102.97;;;77.90;;
41261;SDS011;29629;52.532;13.352;2023-06-10T06:59:41;103.07;;;78.30;;
41261;SDS011;29629;52.532;13.352;2023-06-10T07:02:08;100.30;;;77.60;;
41261;SDS011;29629;52.532;13.352;2023-06-10T07:04:37;102.93;;;77.95;;
41261;SDS011;29629;52.532;13.352;2023-06-10T07:07:06;104.20;;;78.90;;
41261;SDS011;29629;52.532;13.352;2023-06-10T07:09:34;101.70;;;77.60;;
41261;SDS011;29629;52.532;13.352;2023-06-10T07:12:01;101.88;;;78.82;;
41261;SDS011;29629;52.532;13.352;2023-06-10T07:14:28;101.20;;;78.63;;
41261;SDS011;29629;52.532;13.352;2023-06-10T07:16:55;106.93;;;80.50;;
41261;SDS011;29629;52.532;13.352;2023-06-10T07:19:21;107.10;;;80.30;;
41261;SDS011;29629;52.532;13.352;2023-06-10T07:21:50;106.85;;;81.63;;
41261;SDS011;29629;52.532;13.352;2023-06-10T07:24:17;103.57;;;79.93;;
41261;SDS011;29629;52.532;13.352;2023-06-10T07:26:45;102.97;;;79.50;;
41261;SDS011;29629;52.532;13.352;2023-06-10T07:29:12;103.40;;;79.82;;
41261;SDS011;29629;52.532;13.352;2023-06-10T07:31:39;104.32;;;79.43;;
41261;SDS011;29629;52.532;13.352;2023-06-10T07:34:07;104.70;;;81.22;;
41261;SDS011;29629;52.532;13.352;2023-06-10T07:36:34;106.45;;;80.85;;
41261;SDS011;29629;52.532;13.352;2023-06-10T07:39:02;115.63;;;86.15;;
41261;SDS011;29629;52.532;13.352;2023-06-10T07:41:31;103.72;;;80.93;;
41261;SDS011;29629;52.532;13.352;2023-06-10T07:43:57;105.53;;;81.60;;
41261;SDS011;29629;52.532;13.352;2023-06-10T07:46:24;108.60;;;84.00;;
41261;SDS011;29629;52.532;13.352;2023-06-10T07:48:53;123.70;;;88.85;;
41261;SDS011;29629;52.532;13.352;2023-06-10T07:51:20;101.97;;;81.07;;
41261;SDS011;29629;52.532;13.352;2023-06-10T07:53:47;108.95;;;83.43;;
41261;SDS011;29629;52.532;13.352;2023-06-10T07:56:16;102.43;;;82.15;;
41261;SDS011;29629;52.532;13.352;2023-06-10T07:58:43;102.70;;;82.38;;
41261;SDS011;29629;52.532;13.352;2023-06-10T08:01:10;102.95;;;82.60;;
41261;SDS011;29629;52.532;13.352;2023-06-10T08:03:37;96.07;;;80.28;;
41261;SDS011;29629;52.532;13.352;2023-06-10T08:06:04;108.28;;;83.63;;
41261;SDS011;29629;52.532;13.352;2023-06-10T08:08:31;102.78;;;82.35;;
41261;SDS011;29629;52.532;13.352;2023-06-10T08:10:59;105.38;;;83.47;;
41261;SDS011;29629;52.532;13.352;2023-06-10T08:13:28;106.20;;;83.43;;
41261;SDS011;29629;52.532;13.352;2023-06-10T08:15:55;107.55;;;84.47;;
41261;SDS011;29629;52.532;13.352;2023-06-10T08:18:22;106.82;;;83.40;;
41261;SDS011;29629;52.532;13.352;2023-06-10T08:20:48;103.97;;;83.82;;
41261;SDS011;29629;52.532;13.352;2023-06-10T08:23:15;100.85;;;83.30;;
41261;SDS011;29629;52.532;13.352;2023-06-10T08:25:42;98.32;;;84.40;;
41261;SDS011;29629;52.532;13.352;2023-06-10T08:28:09;99.40;;;85.82;;
41261;SDS011;29629;52.532;13.352;2023-06-10T08:30:37;95.15;;;83.45;;
41261;SDS011;29629;52.532;13.352;2023-06-10T08:33:04;93.32;;;83.28;;
41261;SDS011;29629;52.532;13.352;2023-06-10T08:35:31;94.03;;;83.93;;
41261;SDS011;29629;52.532;13.352;2023-06-10T08:37:59;108.88;;;90.25;;
41261;SDS011;29629;52.532;13.352;2023-06-10T08:40:26;96.07;;;85.05;;
41261;SDS011;29629;52.532;13.352;2023-06-10T08:42:54;99.00;;;86.63;;
41261;SDS011;29629;52.532;13.352;2023-06-10T08:45:31;94.38;;;83.97;;
41261;SDS011;29629;52.532;13.352;2023-06-10T08:48:02;92.20;;;82.38;;
41261;SDS011;29629;52.532;13.352;2023-06-10T08:50:31;90.90;;;76.93;;
41261;SDS011;29629;52.532;13.352;2023-06-10T08:53:01;82.85;;;74.38;;
41261;SDS011;29629;52.532;13.352;2023-06-10T08:55:31;80.78;;;72.05;;
41261;SDS011;29629;52.532;13.352;2023-06-10T08:57:59;80.30;;;71.57;;
41261;SDS011;29629;52.532;13.352;2023-06-10T09:00:27;78.75;;;70.63;;
41261;SDS011;29629;52.532;13.352;2023-06-10T09:02:55;76.15;;;67.93;;
41261;SDS011;29629;52.532;13.352;2023-06-10T09:05:23;74.93;;;67.45;;
41261;SDS011;29629;52.532;13.352;2023-06-10T09:07:50;76.80;;;68.00;;
41261;SDS011;29629;52.532;13.352;2023-06-10T09:10:19;76.20;;;68.25;;
41261;SDS011;29629;52.532;13.352;2023-06-10T09:12:46;82.60;;;73.75;;
41261;SDS011;29629;52.532;13.352;2023-06-10T09:15:13;85.65;;;76.28;;
41261;SDS011;29629;52.532;13.352;2023-06-10T09:17:42;83.50;;;74.80;;
41261;SDS011;29629;52.532;13.352;2023-06-10T09:20:10;88.00;;;78.35;;
41261;SDS011;29629;52.532;13.352;2023-06-10T09:22:39;94.10;;;83.80;;
41261;SDS011;29629;52.532;13.352;2023-06-10T09:25:08;91.22;;;81.68;;
41261;SDS011;29629;52.532;13.352;2023-06-10T09:27:45;88.72;;;79.78;;
41261;SDS011;29629;52.532;13.352;2023-06-10T09:30:25;96.35;;;85.82;;
41261;SDS011;29629;52.532;13.352;2023-06-10T09:32:53;94.00;;;83.88;;
41261;SDS011;29629;52.532;13.352;2023-06-10T09:35:21;96.07;;;85.50;;
41261;SDS011;29629;52.532;13.352;2023-06-10T09:37:51;98.38;;;86.05;;
41261;SDS011;29629;52.532;13.352;2023-06-10T09:40:19;96.38;;;85.10;;
41261;SDS011;29629;52.532;13.352;2023-06-10T09:42:46;93.03;;;82.93;;
41261;SDS011;29629;52.532;13.352;2023-06-10T09:45:20;91.55;;;81.93;;
41261;SDS011;29629;52.532;13.352;2023-06-10T09:47:47;94.05;;;83.90;;
41261;SDS011;29629;52.532;13.352;2023-06-10T09:50:17;91.78;;;82.13;;
41261;SDS011;29629;52.532;13.352;2023-06-10T09:52:44;98.05;;;85.05;;
41261;SDS011;29629;52.532;13.352;2023-06-10T09:55:14;94.10;;;84.13;;
41261;SDS011;29629;52.532;13.352;2023-06-10T09:57:41;96.93;;;86.40;;
41261;SDS011;29629;52.532;13.352;2023-06-10T10:00:12;97.82;;;86.10;;
41261;SDS011;29629;52.532;13.352;2023-06-10T10:02:44;102.50;;;87.78;;
41261;SDS011;29629;52.532;13.352;2023-06-10T10:05:12;101.97;;;87.00;;
41261;SDS011;29629;52.532;13.352;2023-06-10T10:07:40;101.60;;;86.78;;
41261;SDS011;29629;52.532;13.352;2023-06-10T10:10:08;100.32;;;86.15;;
41261;SDS011;29629;52.532;13.352;2023-06-10T10:12:37;100.40;;;85.90;;
41261;SDS011;29629;52.532;13.352;2023-06-10T10:15:05;103.43;;;86.65;;
41261;SDS011;29629;52.532;13.352;2023-06-10T10:17:34;107.93;;;85.80;;
41261;SDS011;29629;52.532;13.352;2023-06-10T10:20:06;124.63;;;111.22;;
41261;SDS011;29629;52.532;13.352;2023-06-10T10:22:39;103.43;;;84.97;;
41261;SDS011;29629;52.532;13.352;2023-06-10T10:25:09;103.90;;;85.90;;
41261;SDS011;29629;52.532;13.352;2023-06-10T10:27:42;102.82;;;84.63;;
41261;SDS011;29629;52.532;13.352;2023-06-10T10:30:11;99.18;;;82.95;;
41261;SDS011;29629;52.532;13.352;2023-06-10T10:32:43;102.72;;;83.28;;
41261;SDS011;29629;52.532;13.352;2023-06-10T10:35:19;108.22;;;84.85;;
41261;SDS011;29629;52.532;13.352;2023-06-10T10:37:49;113.00;;;85.85;;
41261;SDS011;29629;52.532;13.352;2023-06-10T10:40:18;103.43;;;83.75;;
41261;SDS011;29629;52.532;13.352;2023-06-10T10:42:48;106.03;;;84.70;;
41261;SDS011;29629;52.532;13.352;2023-06-10T10:45:16;111.40;;;96.78;;
41261;SDS011;29629;52.532;13.352;2023-06-10T10:47:54;105.97;;;86.72;;
41261;SDS011;29629;52.532;13.352;2023-06-10T10:50:22;102.25;;;82.60;;
41261;SDS011;29629;52.532;13.352;2023-06-10T10:52:53;105.88;;;83.85;;
41261;SDS011;29629;52.532;13.352;2023-06-10T10:55:22;102.65;;;83.72;;
41261;SDS011;29629;52.532;13.352;2023-06-10T10:57:57;99.22;;;80.72;;
41261;SDS011;29629;52.532;13.352;2023-06-10T11:00:28;101.65;;;81.03;;
41261;SDS011;29629;52.532;13.352;2023-06-10T11:03:00;108.35;;;84.30;;
41261;SDS011;29629;52.532;13.352;2023-06-10T11:05:37;102.82;;;82.30;;
41261;SDS011;29629;52.532;13.352;2023-06-10T11:08:06;103.10;;;84.18;;
41261;SDS011;29629;52.532;13.352;2023-06-10T11:10:34;100.72;;;90.00;;
41261;SDS011;29629;52.532;13.352;2023-06-10T11:13:08;98.32;;;82.10;;
41261;SDS011;29629;52.532;13.352;2023-06-10T11:15:38;94.88;;;82.28;;
41261;SDS011;29629;52.532;13.352;2023-06-10T11:20:55;94.55;;;84.50;;
41261;SDS011;29629;52.532;13.352;2023-06-10T11:26:09;92.70;;;82.55;;
41261;SDS011;29629;52.532;13.352;2023-06-10T11:28:38;93.18;;;82.72;;
41261;SDS011;29629;52.532;13.352;2023-06-10T11:31:06;91.40;;;81.60;;
41261;SDS011;29629;52.532;13.352;2023-06-10T11:33:32;98.47;;;87.97;;
41261;SDS011;29629;52.532;13.352;2023-06-10T11:36:00;94.13;;;83.78;;
41261;SDS011;29629;52.532;13.352;2023-06-10T11:38:27;93.43;;;83.30;;
41261;SDS011;29629;52.532;13.352;2023-06-10T11:40:55;93.82;;;83.68;;
41261;SDS011;29629;52.532;13.352;2023-06-10T11:43:22;93.15;;;82.95;;
41261;SDS011;29629;52.532;13.352;2023-06-10T11:45:55;92.03;;;82.50;;
41261;SDS011;29629;52.532;13.352;2023-06-10T11:48:22;92.05;;;82.13;;
41261;SDS011;29629;52.532;13.352;2023-06-10T11:50:49;75.43;;;67.65;;
41261;SDS011;29629;52.532;13.352;2023-06-10T11:53:18;107.63;;;99.65;;
41261;SDS011;29629;52.532;13.352;2023-06-10T11:55:46;185.20;;;175.50;;
41261;SDS011;29629;52.532;13.352;2023-06-10T11:58:14;272.20;;;259.05;;
41261;SDS011;29629;52.532;13.352;2023-06-10T12:00:47;340.48;;;325.02;;
41261;SDS011;29629;52.532;13.352;2023-06-10T12:03:17;357.77;;;340.88;;
41261;SDS011;29629;52.532;13.352;2023-06-10T12:05:56;390.13;;;372.17;;
41261;SDS011;29629;52.532;13.352;2023-06-10T12:08:24;424.48;;;404.55;;
41261;SDS011;29629;52.532;13.352;2023-06-10T12:10:52;445.42;;;424.13;;
41261;SDS011;29629;52.532;13.352;2023-06-10T12:13:19;450.00;;;428.27;;
41261;SDS011;29629;52.532;13.352;2023-06-10T12:15:46;457.63;;;436.10;;
41261;SDS011;29629;52.532;13.352;2023-06-10T12:18:19;461.92;;;440.10;;
41261;SDS011;29629;52.532;13.352;2023-06-10T12:20:46;446.40;;;426.08;;
41261;SDS011;29629;52.532;13.352;2023-06-10T12:23:15;463.63;;;441.67;;
41261;SDS011;29629;52.532;13.352;2023-06-10T12:25:51;470.27;;;447.80;;
41261;SDS011;29629;52.532;13.352;2023-06-10T12:28:20;449.30;;;428.00;;
41261;SDS011;29629;52.532;13.352;2023-06-10T12:30:48;441.33;;;420.42;;
41261;SDS011;29629;52.532;13.352;2023-06-10T12:33:19;453.38;;;431.90;;
41261;SDS011;29629;52.532;13.352;2023-06-10T12:35:48;441.33;;;420.40;;
41261;SDS011;29629;52.532;13.352;2023-06-10T12:38:20;432.02;;;411.55;;
41261;SDS011;29629;52.532;13.352;2023-06-10T12:40:49;450.77;;;429.42;;
41261;SDS011;29629;52.532;13.352;2023-06-10T12:43:19;438.90;;;418.42;;
41261;SDS011;29629;52.532;13.352;2023-06-10T12:45:46;436.75;;;417.00;;
41261;SDS011;29629;52.532;13.352;2023-06-10T12:48:18;424.60;;;404.05;;
41261;SDS011;29629;52.532;13.352;2023-06-10T12:50:50;390.52;;;372.60;;
41261;SDS011;29629;52.532;13.352;2023-06-10T12:53:18;354.77;;;338.75;;
41261;SDS011;29629;52.532;13.352;2023-06-10T12:55:45;335.25;;;320.00;;
41261;SDS011;29629;52.532;13.352;2023-06-10T12:58:13;283.98;;;270.52;;
41261;SDS011;29629;52.532;13.352;2023-06-10T13:00:40;248.93;;;236.40;;
41261;SDS011;29629;52.532;13.352;2023-06-10T13:03:08;208.23;;;196.82;;
41261;SDS011;29629;52.532;13.352;2023-06-10T13:05:37;190.30;;;179.52;;
41261;SDS011;29629;52.532;13.352;2023-06-10T13:08:04;134.32;;;124.97;;
41261;SDS011;29629;52.532;13.352;2023-06-10T13:10:32;98.45;;;89.70;;
41261;SDS011;29629;52.532;13.352;2023-06-10T13:13:00;89.38;;;80.88;;
41261;SDS011;29629;52.532;13.352;2023-06-10T13:15:27;90.05;;;81.07;;
41261;SDS011;29629;52.532;13.352;2023-06-10T13:17:54;90.10;;;81.03;;
41261;SDS011;29629;52.532;13.352;2023-06-10T13:20:21;85.78;;;77.63;;
41261;SDS011;29629;52.532;13.352;2023-06-10T13:22:50;88.63;;;79.65;;
41261;SDS011;29629;52.532;13.352;2023-06-10T13:25:17;85.25;;;77.55;;
41261;SDS011;29629;52.532;13.352;2023-06-10T13:27:44;86.90;;;78.20;;
41261;SDS011;29629;52.532;13.352;2023-06-10T13:30:11;93.90;;;83.95;;
41261;SDS011;29629;52.532;13.352;2023-06-10T13:32:38;93.68;;;83.70;;
41261;SDS011;29629;52.532;13.352;2023-06-10T13:35:05;94.55;;;84.72;;
41261;SDS011;29629;52.532;13.352;2023-06-10T13:37:33;92.63;;;83.00;;
41261;SDS011;29629;52.532;13.352;2023-06-10T13:40:01;91.93;;;82.45;;
41261;SDS011;29629;52.532;13.352;2023-06-10T13:42:29;94.50;;;84.68;;
41261;SDS011;29629;52.532;13.352;2023-06-10T13:44:57;97.03;;;86.78;;
41261;SDS011;29629;52.532;13.352;2023-06-10T13:47:23;96.40;;;86.22;;
41261;SDS011;29629;52.532;13.352;2023-06-10T13:49:50;104.05;;;92.88;;
41261;SDS011;29629;52.532;13.352;2023-06-10T13:52:17;102.68;;;91.68;;
41261;SDS011;29629;52.532;13.352;2023-06-10T13:54:44;104.50;;;93.50;;
41261;SDS011;29629;52.532;13.352;2023-06-10T13:57:13;108.25;;;97.18;;
41261;SDS011;29629;52.532;13.352;2023-06-10T13:59:40;107.68;;;95.78;;
41261;SDS011;29629;52.532;13.352;2023-06-10T14:02:06;105.97;;;94.63;;
41261;SDS011;29629;52.532;13.352;2023-06-10T14:04:34;103.55;;;92.38;;
41261;SDS011;29629;52.532;13.352;2023-06-10T14:07:01;102.07;;;91.15;;
41261;SDS011;29629;52.532;13.352;2023-06-10T14:09:28;101.72;;;90.72;;